Flight Track Log - Related Links

Times and Time Zones

All times are in EDT time to prevent confusion due to time zone crossing. See the N997MX flight status page for this flight to view local times or setup timezone preferences in your user account.

Time Position Orientation Groundspeed Altitude Reporting Facility
EDT Latitude Longitude Course Direction KTS MPH feet Rate Location/Type
Fri 03:14:08 PM 41.2686 -80.7378 252° West 200 230 2,400  Level Indianapolis Center
Fri 03:14:43 PM 41.2594 -80.7958 258° West 236 272 3,800 2,589 Climbing Cleveland Center
Fri 03:15:43 PM 41.2467 -80.8758 258° West 242 278 6,500 2,600 Climbing Cleveland Center
Fri 03:16:43 PM 41.2256 -80.9558 251° West 236 272 9,000 1,700 Climbing Cleveland Center
Fri 03:17:43 PM 41.2025 -81.0331 248° West 236 272 9,900 1,250 Climbing Cleveland Center
Fri 03:18:43 PM 41.1708 -81.1267 246° West 269 310 11,500 1,800 Climbing Cleveland Center
Fri 03:19:00 PM 41.1023 -81.2074 252° West  Level FlightAware Approximate
Fri 03:19:43 PM 41.1222 -81.2117 233° Southwest 293 337 13,500  Level Cleveland Center
Fri 03:20:43 PM 41.0739 -81.2992 234° Southwest 299 344 14,900 850 Climbing Cleveland Center
Fri 03:21:43 PM 41.0169 -81.4031 234° Southwest 310 357 15,200 650 Climbing Cleveland Center
Fri 03:22:43 PM 40.9847 -81.5211 250° West 328 377 16,200 1,000 Climbing Cleveland Center
Fri 03:23:43 PM 40.9544 -81.6389 251° West 339 390 17,200 850 Climbing Cleveland Center
Fri 03:24:43 PM 40.9242 -81.7592 252° West 344 396 17,900 700 Climbing Cleveland Center
Fri 03:25:43 PM 40.8894 -81.8822 250° West 344 396 18,600 800 Climbing Cleveland Center
Fri 03:26:43 PM 40.8567 -82.0050 251° West 349 402 19,500 800 Climbing Cleveland Center
Fri 03:27:43 PM 40.8261 -82.1197 251° West 359 413 20,200 842 Climbing Cleveland Center
Fri 03:28:37 PM 40.7956 -82.2353 251° West 356 410 21,100 931 Climbing Indianapolis Center
Fri 03:29:39 PM 40.7614 -82.3611 250° West 358 412 22,000 871 Climbing Indianapolis Center
Fri 03:30:41 PM 40.7275 -82.4850 250° West 357 411 22,900 871 Climbing Indianapolis Center
Fri 03:31:43 PM 40.6928 -82.6092 250° West 357 411 23,800 871 Climbing Indianapolis Center
Fri 03:32:45 PM 40.6597 -82.7317 250° West 354 407 24,700 823 Climbing Indianapolis Center
Fri 03:33:47 PM 40.6269 -82.8508 250° West 345 397 25,500 823 Climbing Indianapolis Center
Fri 03:34:49 PM 40.5950 -82.9667 250° West 338 389 26,400 919 Climbing Indianapolis Center
Fri 03:35:51 PM 40.5561 -83.1014 249° West 334 384 27,400 919 Climbing Indianapolis Center
Fri 03:36:53 PM 40.5258 -83.2147 251° West 329 379 28,300 823 Climbing Indianapolis Center
Fri 03:37:55 PM 40.4942 -83.3278 250° West 328 377 29,100 774 Climbing Indianapolis Center
Fri 03:38:57 PM 40.4622 -83.4375 249° West 323 372 29,900 677 Climbing Indianapolis Center
Fri 03:39:59 PM 40.4311 -83.5481 250° West 323 372 30,500 677 Climbing Indianapolis Center
Fri 03:41:01 PM 40.3994 -83.6589 249° West 324 373 31,300 677 Climbing Indianapolis Center
Fri 03:42:03 PM 40.3617 -83.7878 249° West 323 372 31,900 339 Climbing Indianapolis Center
Fri 03:43:05 PM 40.3303 -83.9000 250° West 326 375 32,000 48 Climbing Indianapolis Center
Fri 03:44:07 PM 40.2961 -84.0181 249° West 342 394 32,000  Level Indianapolis Center
Fri 03:45:09 PM 40.2742 -84.1397 257° West 342 394 32,000 -48 Level Indianapolis Center
Fri 03:46:12 PM 40.2536 -84.2631 258° West 345 397 31,900 -48 Descending Indianapolis Center
Fri 03:47:14 PM 40.2331 -84.3881 258° West 348 400 31,900  Level Indianapolis Center
Fri 03:48:16 PM 40.2128 -84.5144 258° West 353 406 31,900  Level Indianapolis Center
Fri 03:49:18 PM 40.1878 -84.6628 258° West 355 409 31,900  Level Indianapolis Center
Fri 03:50:20 PM 40.1661 -84.7886 257° West 354 407 31,900 48 Level Indianapolis Center
Fri 03:51:22 PM 40.1453 -84.9178 258° West 353 406 32,000 48 Climbing Indianapolis Center
Fri 03:52:24 PM 40.1244 -85.0428 258° West 354 407 32,000  Level Indianapolis Center
Fri 03:53:26 PM 40.1028 -85.1686 257° West 356 410 32,000  Level Indianapolis Center
Fri 03:54:28 PM 40.0808 -85.2942 257° West 355 409 32,000  Level Indianapolis Center
Fri 03:55:30 PM 40.0586 -85.4206 257° West 359 413 32,000 -48 Level Indianapolis Center
Fri 03:56:32 PM 40.0339 -85.5719 258° West 358 412 31,900  Descending Indianapolis Center
Fri 03:57:34 PM 40.0111 -85.6992 257° West 359 413 32,000 48 Climbing Indianapolis Center
Fri 03:58:36 PM 39.9900 -85.8247 258° West 357 411 32,000  Level Indianapolis Center
Fri 03:59:38 PM 39.9675 -85.9506 257° West 358 412 32,000  Level Indianapolis Center
Fri 04:00:40 PM 39.9450 -86.0758 257° West 358 412 32,000  Level Indianapolis Center
Fri 04:01:42 PM 39.9189 -86.2264 257° West 360 414 32,000  Level Indianapolis Center
Fri 04:02:44 PM 39.8961 -86.3511 257° West 361 415 32,000  Level Indianapolis Center
Fri 04:03:46 PM 39.8728 -86.4761 256° West 362 417 32,000  Level Indianapolis Center
Fri 04:04:49 PM 39.8497 -86.6028 257° West 364 419 32,000  Level Indianapolis Center
Fri 04:05:51 PM 39.8214 -86.7547 256° West 364 419 32,000  Level Indianapolis Center
Fri 04:06:53 PM 39.7975 -86.8822 256° West 363 418 32,000  Level Indianapolis Center
Fri 04:07:55 PM 39.7733 -87.0086 256° West 363 418 32,000  Level Indianapolis Center
Fri 04:08:57 PM 39.7503 -87.1381 257° West 368 423 32,000  Level Indianapolis Center
Fri 04:09:59 PM 39.7256 -87.2647 256° West 365 420 32,000 -290 Level Indianapolis Center
Fri 04:11:01 PM 39.7008 -87.3936 256° West 368 423 31,400 -629 Descending Indianapolis Center
Fri 04:12:03 PM 39.6703 -87.5567 256° West 388 447 30,700 -581 Descending Indianapolis Center
Fri 04:13:05 PM 39.6425 -87.6936 255° West 392 451 30,200 -774 Descending Indianapolis Center
Fri 04:14:07 PM 39.6164 -87.8347 257° West 400 460 29,100 -968 Descending Indianapolis Center
Fri 04:15:09 PM 39.5872 -87.9800 255° West 412 474 28,200 -677 Descending Indianapolis Center
Fri 04:16:11 PM 39.5581 -88.1250 255° West 416 479 27,700 -484 Descending Indianapolis Center
Fri 04:17:13 PM 39.5297 -88.2642 255° West 406 467 27,200 -629 Descending Indianapolis Center
Fri 04:18:15 PM 39.4975 -88.4258 256° West 405 466 26,400 -581 Descending Indianapolis Center
Fri 04:19:17 PM 39.4694 -88.5653 255° West 402 463 26,000 -774 Descending Indianapolis Center
Fri 04:20:19 PM 39.4431 -88.7014 256° West 394 453 24,800 -1,452 Descending Indianapolis Center
Fri 04:21:21 PM 39.4142 -88.8436 255° West 402 463 23,000 -2,177 Descending Indianapolis Center
Fri 04:22:23 PM 39.3764 -89.0169 254° West 414 476 20,300 -2,419 Descending Indianapolis Center
Fri 04:23:25 PM 39.3481 -89.1553 255° West 404 465 18,000 -1,790 Descending Indianapolis Center
Fri 04:24:27 PM 39.3222 -89.2858 256° West 385 443 16,600 -1,632 Descending Indianapolis Center
Fri 04:25:41 PM 39.2928 -89.4319 255° West 381 438 14,300 -1,739 Descending Kansas City Center
Fri 04:26:45 PM 39.2617 -89.5836 255° West 372 428 12,600 -1,016 Descending Kansas City Center
Fri 04:27:45 PM 39.2372 -89.7006 255° West 351 404 12,200 -246 Descending Kansas City Center
Fri 04:28:47 PM 39.2000 -89.8014 245° Southwest 324 373 12,100 -48 Descending Kansas City Center
Fri 04:29:50 PM 39.1536 -89.9100 241° Southwest 314 361 12,100 -49 Level Kansas City Center
Fri 04:30:50 PM 39.1139 -90.0025 241° Southwest 324 373 12,000 -339 Descending Kansas City Center
Fri 04:31:54 PM 39.0686 -90.1128 242° Southwest 343 395 11,400 -768 Descending Kansas City Center
Fri 04:32:55 PM 39.0106 -90.2478 241° Southwest 357 411 10,400 -672 Descending Kansas City Center
Fri 04:33:59 PM 38.9628 -90.3592 241° Southwest 361 415 10,000 -144 Descending Kansas City Center
Fri 04:35:00 PM 38.9181 -90.4622 241° Southwest 340 391 10,100 -443 Climbing Kansas City Center
Fri 04:36:01 PM 38.8769 -90.5553 240° Southwest 308 354 9,100 -1,728 Descending Kansas City Center
Fri 04:37:05 PM 38.8322 -90.6583 241° Southwest 281 323 6,500 -1,887 Descending Kansas City Center
Fri 04:38:05 PM 38.7886 -90.7375 235° Southwest 277 319 5,200 -1,161 Descending Kansas City Center
Fri 04:39:09 PM 38.7206 -90.7331 177° South 258 297 4,100 -1,296 Descending Kansas City Center
Fri 04:40:10 PM 38.6714 -90.7136 163° South 216 249 2,500 -1,574 Descending Kansas City Center
Fri 04:41:11 PM 38.6556 -90.6747 118° Southeast 161 185 900 -960 Descending Kansas City Center
Fri 04:42:15 PM 38.6600 -90.6269 83° East 144 166 500 -375 Descending Kansas City Center

Login

Don't have an account? Register now (free) for customized features, flight alerts, and more!